sensor_id;sensor_type;location;lat;lon;timestamp;P1;durP1;ratioP1;P2;durP2;ratioP2
67090;SDS011;54007;55.818;49.058;2023-06-26T08:35:27;9.73;;;3.47;;
67090;SDS011;54007;55.818;49.058;2023-06-26T08:37:59;6.22;;;3.25;;
67090;SDS011;54007;55.818;49.058;2023-06-26T08:40:25;7.93;;;3.30;;
67090;SDS011;54007;55.818;49.058;2023-06-26T08:42:51;7.72;;;3.35;;
67090;SDS011;54007;55.818;49.058;2023-06-26T08:45:17;8.33;;;3.12;;
67090;SDS011;54007;55.818;49.058;2023-06-26T08:47:43;6.30;;;3.57;;
67090;SDS011;54007;55.818;49.058;2023-06-26T08:50:10;8.38;;;2.90;;
67090;SDS011;54007;55.818;49.058;2023-06-26T08:52:45;7.33;;;2.87;;
67090;SDS011;54007;55.818;49.058;2023-06-26T08:55:07;5.40;;;3.10;;
67090;SDS011;54007;55.818;49.058;2023-06-26T08:57:34;6.25;;;3.08;;
67090;SDS011;54007;55.818;49.058;2023-06-26T08:59:58;5.67;;;2.72;;
67090;SDS011;54007;55.818;49.058;2023-06-26T09:02:24;6.27;;;2.80;;
67090;SDS011;54007;55.818;49.058;2023-06-26T09:04:50;6.97;;;3.08;;
67090;SDS011;54007;55.818;49.058;2023-06-26T09:07:16;6.10;;;2.90;;
67090;SDS011;54007;55.818;49.058;2023-06-26T09:09:41;6.40;;;2.83;;
67090;SDS011;54007;55.818;49.058;2023-06-26T09:12:08;5.55;;;3.00;;
67090;SDS011;54007;55.818;49.058;2023-06-26T09:14:33;5.50;;;2.77;;
67090;SDS011;54007;55.818;49.058;2023-06-26T09:17:04;6.33;;;2.70;;
67090;SDS011;54007;55.818;49.058;2023-06-26T09:19:30;5.70;;;2.80;;
67090;SDS011;54007;55.818;49.058;2023-06-26T09:21:57;7.17;;;2.92;;
67090;SDS011;54007;55.818;49.058;2023-06-26T09:24:22;7.10;;;2.43;;
67090;SDS011;54007;55.818;49.058;2023-06-26T09:26:48;6.87;;;2.80;;
67090;SDS011;54007;55.818;49.058;2023-06-26T09:29:14;7.00;;;2.57;;
67090;SDS011;54007;55.818;49.058;2023-06-26T09:31:39;6.78;;;2.80;;
67090;SDS011;54007;55.818;49.058;2023-06-26T09:34:05;5.45;;;2.37;;
67090;SDS011;54007;55.818;49.058;2023-06-26T09:36:32;6.07;;;2.60;;
67090;SDS011;54007;55.818;49.058;2023-06-26T09:39:04;5.60;;;2.80;;
67090;SDS011;54007;55.818;49.058;2023-06-26T09:41:26;5.60;;;2.62;;
67090;SDS011;54007;55.818;49.058;2023-06-26T09:43:52;6.00;;;2.67;;
67090;SDS011;54007;55.818;49.058;2023-06-26T09:46:24;5.20;;;2.60;;
67090;SDS011;54007;55.818;49.058;2023-06-26T09:48:50;6.05;;;2.60;;
67090;SDS011;54007;55.818;49.058;2023-06-26T09:51:20;5.62;;;2.37;;
67090;SDS011;54007;55.818;49.058;2023-06-26T09:53:52;6.10;;;2.77;;
67090;SDS011;54007;55.818;49.058;2023-06-26T09:56:18;7.67;;;2.52;;
67090;SDS011;54007;55.818;49.058;2023-06-26T09:58:44;7.78;;;2.75;;
67090;SDS011;54007;55.818;49.058;2023-06-26T10:01:10;7.17;;;2.50;;
67090;SDS011;54007;55.818;49.058;2023-06-26T10:03:36;10.30;;;2.65;;
67090;SDS011;54007;55.818;49.058;2023-06-26T10:06:02;5.83;;;2.25;;
67090;SDS011;54007;55.818;49.058;2023-06-26T10:08:27;6.33;;;2.20;;
67090;SDS011;54007;55.818;49.058;2023-06-26T10:10:53;6.35;;;2.40;;
67090;SDS011;54007;55.818;49.058;2023-06-26T10:13:22;7.30;;;2.23;;
67090;SDS011;54007;55.818;49.058;2023-06-26T10:15:45;5.20;;;2.40;;
67090;SDS011;54007;55.818;49.058;2023-06-26T10:18:11;5.60;;;2.45;;
67090;SDS011;54007;55.818;49.058;2023-06-26T10:20:36;5.37;;;2.40;;
67090;SDS011;54007;55.818;49.058;2023-06-26T10:23:02;5.78;;;2.60;;
67090;SDS011;54007;55.818;49.058;2023-06-26T10:25:28;9.03;;;2.50;;
67090;SDS011;54007;55.818;49.058;2023-06-26T10:27:58;5.20;;;2.22;;
67090;SDS011;54007;55.818;49.058;2023-06-26T10:30:24;5.90;;;2.30;;
67090;SDS011;54007;55.818;49.058;2023-06-26T10:32:49;8.40;;;2.50;;
67090;SDS011;54007;55.818;49.058;2023-06-26T10:35:14;4.47;;;2.30;;
67090;SDS011;54007;55.818;49.058;2023-06-26T10:37:41;5.37;;;2.40;;
67090;SDS011;54007;55.818;49.058;2023-06-26T10:40:10;7.20;;;2.20;;
67090;SDS011;54007;55.818;49.058;2023-06-26T10:42:36;5.12;;;2.17;;
67090;SDS011;54007;55.818;49.058;2023-06-26T10:45:11;6.78;;;2.55;;
67090;SDS011;54007;55.818;49.058;2023-06-26T10:47:39;6.58;;;2.40;;
67090;SDS011;54007;55.818;49.058;2023-06-26T10:50:38;6.63;;;2.23;;
67090;SDS011;54007;55.818;49.058;2023-06-26T10:52:36;6.67;;;2.37;;
67090;SDS011;54007;55.818;49.058;2023-06-26T10:55:02;5.50;;;2.22;;
67090;SDS011;54007;55.818;49.058;2023-06-26T10:57:28;4.70;;;2.30;;
67090;SDS011;54007;55.818;49.058;2023-06-26T11:00:07;5.08;;;2.30;;
67090;SDS011;54007;55.818;49.058;2023-06-26T11:02:23;4.95;;;2.12;;
67090;SDS011;54007;55.818;49.058;2023-06-26T11:04:52;5.03;;;2.40;;
67090;SDS011;54007;55.818;49.058;2023-06-26T11:07:22;5.35;;;2.30;;
67090;SDS011;54007;55.818;49.058;2023-06-26T11:10:00;6.00;;;2.40;;
67090;SDS011;54007;55.818;49.058;2023-06-26T11:12:34;5.45;;;2.30;;
67090;SDS011;54007;55.818;49.058;2023-06-26T11:15:00;7.42;;;2.55;;
67090;SDS011;54007;55.818;49.058;2023-06-26T11:17:25;5.67;;;2.40;;
67090;SDS011;54007;55.818;49.058;2023-06-26T11:19:51;7.62;;;2.50;;
67090;SDS011;54007;55.818;49.058;2023-06-26T11:22:17;6.37;;;2.10;;
67090;SDS011;54007;55.818;49.058;2023-06-26T11:24:43;4.50;;;2.15;;
67090;SDS011;54007;55.818;49.058;2023-06-26T11:27:09;6.67;;;2.80;;
67090;SDS011;54007;55.818;49.058;2023-06-26T11:29:34;5.83;;;2.80;;
67090;SDS011;54007;55.818;49.058;2023-06-26T11:32:01;5.17;;;2.12;;
67090;SDS011;54007;55.818;49.058;2023-06-26T11:34:29;7.67;;;2.77;;
67090;SDS011;54007;55.818;49.058;2023-06-26T11:36:52;5.45;;;2.50;;
67090;SDS011;54007;55.818;49.058;2023-06-26T11:39:18;4.65;;;2.30;;
67090;SDS011;54007;55.818;49.058;2023-06-26T11:41:44;4.70;;;2.47;;
67090;SDS011;54007;55.818;49.058;2023-06-26T11:44:10;5.22;;;2.10;;
67090;SDS011;54007;55.818;49.058;2023-06-26T11:46:36;5.10;;;2.10;;
67090;SDS011;54007;55.818;49.058;2023-06-26T11:49:04;4.63;;;2.20;;
67090;SDS011;54007;55.818;49.058;2023-06-26T11:51:30;5.75;;;2.33;;
67090;SDS011;54007;55.818;49.058;2023-06-26T11:53:56;5.47;;;2.20;;
67090;SDS011;54007;55.818;49.058;2023-06-26T11:56:22;4.97;;;2.10;;
67090;SDS011;54007;55.818;49.058;2023-06-26T11:59:00;4.72;;;2.30;;
67090;SDS011;54007;55.818;49.058;2023-06-26T12:01:29;5.35;;;2.62;;
67090;SDS011;54007;55.818;49.058;2023-06-26T12:03:53;6.47;;;2.10;;
67090;SDS011;54007;55.818;49.058;2023-06-26T12:06:17;5.50;;;2.27;;
67090;SDS011;54007;55.818;49.058;2023-06-26T12:08:43;4.53;;;2.23;;
67090;SDS011;54007;55.818;49.058;2023-06-26T12:11:09;7.87;;;2.33;;
67090;SDS011;54007;55.818;49.058;2023-06-26T12:13:35;5.75;;;2.15;;
67090;SDS011;54007;55.818;49.058;2023-06-26T12:16:01;4.83;;;2.10;;
67090;SDS011;54007;55.818;49.058;2023-06-26T12:18:32;6.97;;;2.30;;
67090;SDS011;54007;55.818;49.058;2023-06-26T12:20:53;6.67;;;2.40;;
67090;SDS011;54007;55.818;49.058;2023-06-26T12:23:23;6.50;;;2.13;;
67090;SDS011;54007;55.818;49.058;2023-06-26T12:25:48;7.60;;;2.08;;
67090;SDS011;54007;55.818;49.058;2023-06-26T12:28:17;7.67;;;2.72;;
67090;SDS011;54007;55.818;49.058;2023-06-26T12:30:46;6.50;;;2.40;;
67090;SDS011;54007;55.818;49.058;2023-06-26T12:33:15;6.87;;;2.30;;
67090;SDS011;54007;55.818;49.058;2023-06-26T12:35:40;6.28;;;2.42;;
67090;SDS011;54007;55.818;49.058;2023-06-26T12:38:08;6.08;;;2.15;;
67090;SDS011;54007;55.818;49.058;2023-06-26T12:40:33;4.50;;;2.20;;
67090;SDS011;54007;55.818;49.058;2023-06-26T12:42:59;6.08;;;2.22;;
67090;SDS011;54007;55.818;49.058;2023-06-26T12:45:25;5.75;;;1.92;;
67090;SDS011;54007;55.818;49.058;2023-06-26T12:47:51;8.37;;;2.63;;
67090;SDS011;54007;55.818;49.058;2023-06-26T12:50:17;5.95;;;2.30;;
67090;SDS011;54007;55.818;49.058;2023-06-26T12:52:43;4.92;;;2.35;;
67090;SDS011;54007;55.818;49.058;2023-06-26T12:55:08;5.60;;;2.10;;
67090;SDS011;54007;55.818;49.058;2023-06-26T12:57:34;4.65;;;2.37;;
67090;SDS011;54007;55.818;49.058;2023-06-26T13:00:00;5.57;;;2.30;;
67090;SDS011;54007;55.818;49.058;2023-06-26T13:02:26;5.42;;;2.00;;
67090;SDS011;54007;55.818;49.058;2023-06-26T13:04:52;4.67;;;2.15;;
67090;SDS011;54007;55.818;49.058;2023-06-26T13:07:18;5.73;;;2.30;;
67090;SDS011;54007;55.818;49.058;2023-06-26T13:09:44;6.25;;;2.40;;
67090;SDS011;54007;55.818;49.058;2023-06-26T13:12:10;6.40;;;2.17;;
67090;SDS011;54007;55.818;49.058;2023-06-26T13:14:35;5.63;;;2.23;;
67090;SDS011;54007;55.818;49.058;2023-06-26T13:17:02;4.65;;;2.30;;
67090;SDS011;54007;55.818;49.058;2023-06-26T13:19:27;5.47;;;1.95;;
67090;SDS011;54007;55.818;49.058;2023-06-26T13:21:53;6.33;;;2.30;;
67090;SDS011;54007;55.818;49.058;2023-06-26T13:24:19;5.85;;;2.00;;
67090;SDS011;54007;55.818;49.058;2023-06-26T13:26:45;5.33;;;2.00;;
67090;SDS011;54007;55.818;49.058;2023-06-26T13:29:11;4.77;;;2.13;;
67090;SDS011;54007;55.818;49.058;2023-06-26T13:31:36;6.25;;;2.25;;
67090;SDS011;54007;55.818;49.058;2023-06-26T13:34:02;5.30;;;2.50;;
67090;SDS011;54007;55.818;49.058;2023-06-26T13:36:28;6.35;;;2.08;;
67090;SDS011;54007;55.818;49.058;2023-06-26T13:38:54;6.60;;;2.50;;
67090;SDS011;54007;55.818;49.058;2023-06-26T13:41:23;6.33;;;2.60;;
67090;SDS011;54007;55.818;49.058;2023-06-26T13:43:49;4.53;;;2.08;;
67090;SDS011;54007;55.818;49.058;2023-06-26T13:46:15;4.45;;;2.12;;
67090;SDS011;54007;55.818;49.058;2023-06-26T13:48:47;5.90;;;2.40;;
67090;SDS011;54007;55.818;49.058;2023-06-26T13:51:13;5.70;;;2.30;;
67090;SDS011;54007;55.818;49.058;2023-06-26T13:53:39;6.45;;;2.30;;
67090;SDS011;54007;55.818;49.058;2023-06-26T13:56:05;7.17;;;2.65;;
67090;SDS011;54007;55.818;49.058;2023-06-26T13:58:30;7.17;;;2.33;;
67090;SDS011;54007;55.818;49.058;2023-06-26T14:00:56;7.58;;;2.30;;
67090;SDS011;54007;55.818;49.058;2023-06-26T14:03:22;6.25;;;2.47;;
67090;SDS011;54007;55.818;49.058;2023-06-26T14:05:48;5.17;;;2.30;;
67090;SDS011;54007;55.818;49.058;2023-06-26T14:08:14;6.25;;;2.30;;
67090;SDS011;54007;55.818;49.058;2023-06-26T14:10:40;6.40;;;2.15;;
67090;SDS011;54007;55.818;49.058;2023-06-26T14:13:06;6.83;;;2.27;;
67090;SDS011;54007;55.818;49.058;2023-06-26T14:15:32;6.70;;;2.52;;
67090;SDS011;54007;55.818;49.058;2023-06-26T14:17:57;6.17;;;2.70;;
67090;SDS011;54007;55.818;49.058;2023-06-26T14:20:23;6.22;;;2.20;;
67090;SDS011;54007;55.818;49.058;2023-06-26T14:22:49;5.30;;;2.20;;
67090;SDS011;54007;55.818;49.058;2023-06-26T14:25:15;5.43;;;2.50;;
67090;SDS011;54007;55.818;49.058;2023-06-26T14:27:41;5.22;;;2.20;;
67090;SDS011;54007;55.818;49.058;2023-06-26T14:30:07;5.53;;;2.30;;
67090;SDS011;54007;55.818;49.058;2023-06-26T14:32:33;4.47;;;2.30;;
67090;SDS011;54007;55.818;49.058;2023-06-26T14:34:59;6.20;;;2.40;;
67090;SDS011;54007;55.818;49.058;2023-06-26T14:37:25;5.30;;;2.42;;
67090;SDS011;54007;55.818;49.058;2023-06-26T14:39:50;5.40;;;2.50;;
67090;SDS011;54007;55.818;49.058;2023-06-26T14:42:16;8.45;;;2.40;;
67090;SDS011;54007;55.818;49.058;2023-06-26T14:44:42;7.50;;;2.67;;
67090;SDS011;54007;55.818;49.058;2023-06-26T14:47:08;4.85;;;2.55;;
67090;SDS011;54007;55.818;49.058;2023-06-26T14:49:33;6.62;;;2.27;;
67090;SDS011;54007;55.818;49.058;2023-06-26T14:51:59;6.37;;;2.47;;
67090;SDS011;54007;55.818;49.058;2023-06-26T14:54:25;5.15;;;2.40;;
67090;SDS011;54007;55.818;49.058;2023-06-26T14:56:51;5.37;;;2.20;;
67090;SDS011;54007;55.818;49.058;2023-06-26T14:59:21;6.80;;;2.40;;
67090;SDS011;54007;55.818;49.058;2023-06-26T15:01:47;5.65;;;2.40;;
67090;SDS011;54007;55.818;49.058;2023-06-26T15:04:13;6.12;;;2.30;;
67090;SDS011;54007;55.818;49.058;2023-06-26T15:06:45;6.20;;;2.03;;
67090;SDS011;54007;55.818;49.058;2023-06-26T15:09:11;8.08;;;2.37;;
67090;SDS011;54007;55.818;49.058;2023-06-26T15:11:37;5.35;;;2.08;;
67090;SDS011;54007;55.818;49.058;2023-06-26T15:14:03;5.50;;;2.00;;
67090;SDS011;54007;55.818;49.058;2023-06-26T15:16:28;7.05;;;2.30;;
67090;SDS011;54007;55.818;49.058;2023-06-26T15:18:54;5.28;;;2.40;;
67090;SDS011;54007;55.818;49.058;2023-06-26T15:21:20;8.13;;;2.43;;
67090;SDS011;54007;55.818;49.058;2023-06-26T15:23:47;6.58;;;2.83;;
67090;SDS011;54007;55.818;49.058;2023-06-26T15:26:12;5.20;;;2.37;;
67090;SDS011;54007;55.818;49.058;2023-06-26T15:28:38;5.33;;;2.40;;
67090;SDS011;54007;55.818;49.058;2023-06-26T15:31:04;4.37;;;2.10;;
67090;SDS011;54007;55.818;49.058;2023-06-26T15:33:32;5.83;;;2.40;;
67090;SDS011;54007;55.818;49.058;2023-06-26T15:35:58;6.10;;;2.50;;
67090;SDS011;54007;55.818;49.058;2023-06-26T15:38:24;11.12;;;2.90;;
67090;SDS011;54007;55.818;49.058;2023-06-26T15:40:50;5.55;;;2.42;;
67090;SDS011;54007;55.818;49.058;2023-06-26T15:43:16;6.33;;;2.80;;
67090;SDS011;54007;55.818;49.058;2023-06-26T15:45:42;6.65;;;2.40;;
67090;SDS011;54007;55.818;49.058;2023-06-26T15:48:07;5.25;;;2.25;;
67090;SDS011;54007;55.818;49.058;2023-06-26T15:50:33;5.20;;;2.30;;
67090;SDS011;54007;55.818;49.058;2023-06-26T15:53:01;5.03;;;2.10;;
67090;SDS011;54007;55.818;49.058;2023-06-26T15:55:25;5.97;;;2.10;;
67090;SDS011;54007;55.818;49.058;2023-06-26T15:57:51;5.22;;;2.30;;
67090;SDS011;54007;55.818;49.058;2023-06-26T16:00:17;9.08;;;2.50;;
67090;SDS011;54007;55.818;49.058;2023-06-26T16:02:43;5.57;;;2.50;;
67090;SDS011;54007;55.818;49.058;2023-06-26T16:05:09;5.70;;;2.10;;
67090;SDS011;54007;55.818;49.058;2023-06-26T16:07:35;6.30;;;2.15;;
67090;SDS011;54007;55.818;49.058;2023-06-26T16:10:00;6.57;;;2.60;;
67090;SDS011;54007;55.818;49.058;2023-06-26T16:12:26;5.47;;;1.95;;
67090;SDS011;54007;55.818;49.058;2023-06-26T16:14:52;7.27;;;2.60;;
67090;SDS011;54007;55.818;49.058;2023-06-26T16:17:22;5.90;;;2.55;;
67090;SDS011;54007;55.818;49.058;2023-06-26T16:19:48;7.92;;;3.33;;
67090;SDS011;54007;55.818;49.058;2023-06-26T16:22:13;6.83;;;2.60;;
67090;SDS011;54007;55.818;49.058;2023-06-26T16:24:45;7.20;;;2.72;;
67090;SDS011;54007;55.818;49.058;2023-06-26T16:27:11;5.55;;;2.60;;
67090;SDS011;54007;55.818;49.058;2023-06-26T16:29:37;5.70;;;2.87;;
67090;SDS011;54007;55.818;49.058;2023-06-26T16:32:03;7.03;;;2.67;;
67090;SDS011;54007;55.818;49.058;2023-06-26T16:34:29;7.50;;;2.85;;
67090;SDS011;54007;55.818;49.058;2023-06-26T16:36:55;10.20;;;3.60;;
67090;SDS011;54007;55.818;49.058;2023-06-26T16:39:21;8.20;;;2.90;;
67090;SDS011;54007;55.818;49.058;2023-06-26T16:41:47;6.33;;;2.80;;
67090;SDS011;54007;55.818;49.058;2023-06-26T16:44:12;8.90;;;3.10;;
67090;SDS011;54007;55.818;49.058;2023-06-26T16:46:38;6.50;;;2.75;;
67090;SDS011;54007;55.818;49.058;2023-06-26T16:49:04;6.90;;;2.80;;
67090;SDS011;54007;55.818;49.058;2023-06-26T16:51:30;10.43;;;3.35;;
67090;SDS011;54007;55.818;49.058;2023-06-26T16:53:56;8.53;;;3.30;;
67090;SDS011;54007;55.818;49.058;2023-06-26T16:56:22;6.97;;;3.00;;
67090;SDS011;54007;55.818;49.058;2023-06-26T16:58:47;7.90;;;3.35;;
67090;SDS011;54007;55.818;49.058;2023-06-26T17:01:13;7.40;;;3.03;;
67090;SDS011;54007;55.818;49.058;2023-06-26T17:03:39;8.25;;;3.20;;
67090;SDS011;54007;55.818;49.058;2023-06-26T17:06:05;7.03;;;3.40;;
67090;SDS011;54007;55.818;49.058;2023-06-26T17:08:31;8.03;;;3.20;;
67090;SDS011;54007;55.818;49.058;2023-06-26T17:10:57;7.75;;;4.10;;
67090;SDS011;54007;55.818;49.058;2023-06-26T17:13:22;11.68;;;4.30;;
67090;SDS011;54007;55.818;49.058;2023-06-26T17:15:48;10.70;;;4.13;;
67090;SDS011;54007;55.818;49.058;2023-06-26T17:18:14;11.00;;;4.65;;
67090;SDS011;54007;55.818;49.058;2023-06-26T17:20:40;11.97;;;5.93;;
67090;SDS011;54007;55.818;49.058;2023-06-26T17:23:06;16.75;;;5.20;;
67090;SDS011;54007;55.818;49.058;2023-06-26T17:25:32;9.73;;;4.72;;
67090;SDS011;54007;55.818;49.058;2023-06-26T17:27:57;11.63;;;4.50;;
67090;SDS011;54007;55.818;49.058;2023-06-26T17:30:23;11.20;;;4.58;;
67090;SDS011;54007;55.818;49.058;2023-06-26T17:32:49;11.03;;;4.47;;
67090;SDS011;54007;55.818;49.058;2023-06-26T17:35:19;12.50;;;4.35;;
67090;SDS011;54007;55.818;49.058;2023-06-26T17:37:45;9.35;;;4.20;;
67090;SDS011;54007;55.818;49.058;2023-06-26T17:40:11;11.60;;;4.47;;
67090;SDS011;54007;55.818;49.058;2023-06-26T17:42:43;14.93;;;6.00;;
67090;SDS011;54007;55.818;49.058;2023-06-26T17:45:09;15.72;;;6.80;;
67090;SDS011;54007;55.818;49.058;2023-06-26T17:47:35;14.43;;;5.92;;
67090;SDS011;54007;55.818;49.058;2023-06-26T17:50:02;12.53;;;5.20;;
67090;SDS011;54007;55.818;49.058;2023-06-26T17:52:26;14.00;;;5.30;;
67090;SDS011;54007;55.818;49.058;2023-06-26T17:54:52;10.80;;;5.07;;
67090;SDS011;54007;55.818;49.058;2023-06-26T17:57:18;14.15;;;5.58;;
67090;SDS011;54007;55.818;49.058;2023-06-26T17:59:44;15.68;;;5.40;;
67090;SDS011;54007;55.818;49.058;2023-06-26T18:02:10;17.37;;;5.93;;
67090;SDS011;54007;55.818;49.058;2023-06-26T18:04:36;21.00;;;6.53;;
67090;SDS011;54007;55.818;49.058;2023-06-26T18:07:01;17.30;;;6.70;;
67090;SDS011;54007;55.818;49.058;2023-06-26T18:09:27;17.23;;;6.55;;
67090;SDS011;54007;55.818;49.058;2023-06-26T18:11:53;16.87;;;6.80;;
67090;SDS011;54007;55.818;49.058;2023-06-26T18:14:19;19.40;;;6.90;;
67090;SDS011;54007;55.818;49.058;2023-06-26T18:16:45;24.02;;;8.28;;
67090;SDS011;54007;55.818;49.058;2023-06-26T18:19:12;17.10;;;6.30;;
67090;SDS011;54007;55.818;49.058;2023-06-26T18:21:38;19.57;;;6.47;;
67090;SDS011;54007;55.818;49.058;2023-06-26T18:24:03;20.48;;;6.90;;
67090;SDS011;54007;55.818;49.058;2023-06-26T18:26:29;21.70;;;8.28;;
67090;SDS011;54007;55.818;49.058;2023-06-26T18:28:55;21.70;;;6.75;;
67090;SDS011;54007;55.818;49.058;2023-06-26T18:31:21;22.95;;;6.40;;
67090;SDS011;54007;55.818;49.058;2023-06-26T18:33:47;18.73;;;6.40;;
67090;SDS011;54007;55.818;49.058;2023-06-26T18:36:13;23.92;;;6.42;;
67090;SDS011;54007;55.818;49.058;2023-06-26T18:38:39;17.02;;;5.80;;
67090;SDS011;54007;55.818;49.058;2023-06-26T18:41:05;16.37;;;6.20;;
67090;SDS011;54007;55.818;49.058;2023-06-26T18:43:31;17.27;;;6.50;;
67090;SDS011;54007;55.818;49.058;2023-06-26T18:45:57;19.57;;;6.20;;
67090;SDS011;54007;55.818;49.058;2023-06-26T18:48:23;22.22;;;5.83;;
67090;SDS011;54007;55.818;49.058;2023-06-26T18:50:49;16.45;;;5.80;;
67090;SDS011;54007;55.818;49.058;2023-06-26T18:53:19;21.00;;;6.27;;
67090;SDS011;54007;55.818;49.058;2023-06-26T18:55:45;22.70;;;6.62;;
67090;SDS011;54007;55.818;49.058;2023-06-26T18:58:11;23.27;;;6.72;;
67090;SDS011;54007;55.818;49.058;2023-06-26T19:00:43;20.90;;;5.90;;
67090;SDS011;54007;55.818;49.058;2023-06-26T19:03:09;22.85;;;6.72;;
67090;SDS011;54007;55.818;49.058;2023-06-26T19:05:35;29.20;;;7.90;;
